sensor_id;sensor_type;location;lat;lon;timestamp;pressure;altitude;pressure_sealevel;temperature;humidity
31911;BME280;18457;52.432;16.914;2023-02-23T00:00:52;100705.69;;;2.26;77.70
31911;BME280;18457;52.432;16.914;2023-02-23T00:03:24;100705.58;;;2.19;77.63
31911;BME280;18457;52.432;16.914;2023-02-23T00:05:56;100705.61;;;2.21;77.93
31911;BME280;18457;52.432;16.914;2023-02-23T00:08:28;100702.75;;;2.20;77.84
31911;BME280;18457;52.432;16.914;2023-02-23T00:11:03;100697.14;;;2.27;77.60
31911;BME280;18457;52.432;16.914;2023-02-23T00:13:37;100697.52;;;2.29;77.52
31911;BME280;18457;52.432;16.914;2023-02-23T00:16:10;100696.11;;;2.30;77.19
31911;BME280;18457;52.432;16.914;2023-02-23T00:18:45;100688.82;;;2.32;77.12
31911;BME280;18457;52.432;16.914;2023-02-23T00:21:22;100686.38;;;2.35;76.84
31911;BME280;18457;52.432;16.914;2023-02-23T00:23:56;100688.13;;;2.32;76.87
31911;BME280;18457;52.432;16.914;2023-02-23T00:26:31;100688.61;;;2.29;77.06
31911;BME280;18457;52.432;16.914;2023-02-23T00:29:06;100689.11;;;2.26;76.86
31911;BME280;18457;52.432;16.914;2023-02-23T00:31:39;100685.86;;;2.24;77.10
31911;BME280;18457;52.432;16.914;2023-02-23T00:34:16;100684.63;;;2.25;77.04
31911;BME280;18457;52.432;16.914;2023-02-23T00:36:52;100683.01;;;2.24;77.13
31911;BME280;18457;52.432;16.914;2023-02-23T00:39:25;100683.17;;;2.23;77.43
31911;BME280;18457;52.432;16.914;2023-02-23T00:41:59;100678.04;;;2.26;77.10
31911;BME280;18457;52.432;16.914;2023-02-23T00:44:33;100681.77;;;2.24;76.84
31911;BME280;18457;52.432;16.914;2023-02-23T00:47:06;100680.77;;;2.17;77.33
31911;BME280;18457;52.432;16.914;2023-02-23T00:49:38;100678.94;;;2.13;77.51
31911;BME280;18457;52.432;16.914;2023-02-23T00:52:09;100678.75;;;2.12;77.41
31911;BME280;18457;52.432;16.914;2023-02-23T00:54:44;100681.49;;;2.17;77.30
31911;BME280;18457;52.432;16.914;2023-02-23T00:57:17;100675.75;;;2.15;77.61
31911;BME280;18457;52.432;16.914;2023-02-23T00:59:48;100679.50;;;2.15;77.46
31911;BME280;18457;52.432;16.914;2023-02-23T01:02:20;100676.23;;;2.11;77.07
31911;BME280;18457;52.432;16.914;2023-02-23T01:04:53;100675.03;;;2.14;77.19
31911;BME280;18457;52.432;16.914;2023-02-23T01:07:27;100673.04;;;2.12;77.27
31911;BME280;18457;52.432;16.914;2023-02-23T01:09:59;100670.48;;;2.07;77.58
31911;BME280;18457;52.432;16.914;2023-02-23T01:12:31;100668.50;;;2.06;77.57
31911;BME280;18457;52.432;16.914;2023-02-23T01:15:04;100669.89;;;2.04;77.52
31911;BME280;18457;52.432;16.914;2023-02-23T01:17:37;100666.52;;;2.05;77.60
31911;BME280;18457;52.432;16.914;2023-02-23T01:20:14;100661.77;;;5.00;98.14
31911;BME280;18457;52.432;16.914;2023-02-23T01:22:50;100665.17;;;7.03;100.00
31911;BME280;18457;52.432;16.914;2023-02-23T01:25:22;100660.34;;;8.66;95.89
31911;BME280;18457;52.432;16.914;2023-02-23T01:27:54;100662.23;;;7.78;71.52
31911;BME280;18457;52.432;16.914;2023-02-23T01:30:26;100663.91;;;5.96;65.30
31911;BME280;18457;52.432;16.914;2023-02-23T01:32:59;100662.55;;;4.85;67.23
31911;BME280;18457;52.432;16.914;2023-02-23T01:35:32;100667.23;;;4.11;69.47
31911;BME280;18457;52.432;16.914;2023-02-23T01:38:04;100663.30;;;3.60;71.22
31911;BME280;18457;52.432;16.914;2023-02-23T01:40:36;100661.06;;;3.11;73.41
31911;BME280;18457;52.432;16.914;2023-02-23T01:43:14;100658.36;;;2.92;74.46
31911;BME280;18457;52.432;16.914;2023-02-23T01:45:47;100656.48;;;2.83;74.92
31911;BME280;18457;52.432;16.914;2023-02-23T01:48:22;100651.23;;;2.61;75.74
31911;BME280;18457;52.432;16.914;2023-02-23T01:50:58;100647.43;;;2.56;76.41
31911;BME280;18457;52.432;16.914;2023-02-23T01:53:35;100647.12;;;2.46;76.53
31911;BME280;18457;52.432;16.914;2023-02-23T01:56:09;100645.23;;;2.37;76.91
31911;BME280;18457;52.432;16.914;2023-02-23T01:58:46;100645.66;;;2.29;77.45
31911;BME280;18457;52.432;16.914;2023-02-23T02:01:22;100648.20;;;2.33;77.30
31911;BME280;18457;52.432;16.914;2023-02-23T02:03:54;100645.68;;;2.31;77.31
31911;BME280;18457;52.432;16.914;2023-02-23T02:06:27;100639.80;;;2.18;77.82
31911;BME280;18457;52.432;16.914;2023-02-23T02:09:01;100638.80;;;2.24;77.94
31911;BME280;18457;52.432;16.914;2023-02-23T02:11:37;100636.85;;;2.24;77.80
31911;BME280;18457;52.432;16.914;2023-02-23T02:14:18;100640.17;;;2.19;77.90
31911;BME280;18457;52.432;16.914;2023-02-23T02:16:59;100638.55;;;2.17;78.20
31911;BME280;18457;52.432;16.914;2023-02-23T02:19:58;100636.81;;;2.08;78.50
31911;BME280;18457;52.432;16.914;2023-02-23T02:25:49;100630.09;;;2.11;78.59
31911;BME280;18457;52.432;16.914;2023-02-23T02:28:34;100626.11;;;2.07;78.17
31911;BME280;18457;52.432;16.914;2023-02-23T02:37:48;100621.25;;;2.02;78.71
31911;BME280;18457;52.432;16.914;2023-02-23T02:40:31;100617.82;;;1.99;78.81
31911;BME280;18457;52.432;16.914;2023-02-23T02:43:13;100619.59;;;1.99;78.81
31911;BME280;18457;52.432;16.914;2023-02-23T02:45:51;100615.50;;;2.00;78.80
31911;BME280;18457;52.432;16.914;2023-02-23T02:48:34;100616.97;;;2.02;78.84
31911;BME280;18457;52.432;16.914;2023-02-23T02:51:12;100616.98;;;2.04;78.95
31911;BME280;18457;52.432;16.914;2023-02-23T02:53:53;100613.60;;;2.03;78.79
31911;BME280;18457;52.432;16.914;2023-02-23T02:56:28;100610.21;;;2.03;78.81
31911;BME280;18457;52.432;16.914;2023-02-23T02:59:03;100609.40;;;1.96;79.24
31911;BME280;18457;52.432;16.914;2023-02-23T03:01:36;100605.88;;;1.99;79.25
31911;BME280;18457;52.432;16.914;2023-02-23T03:04:25;100601.33;;;1.92;79.48
31911;BME280;18457;52.432;16.914;2023-02-23T03:07:19;100600.98;;;1.93;79.64
31911;BME280;18457;52.432;16.914;2023-02-23T03:10:13;100602.34;;;2.01;79.23
31911;BME280;18457;52.432;16.914;2023-02-23T03:13:16;100599.20;;;1.93;79.61
31911;BME280;18457;52.432;16.914;2023-02-23T03:16:18;100594.24;;;1.83;79.87
31911;BME280;18457;52.432;16.914;2023-02-23T03:19:15;100597.70;;;1.87;79.89
31911;BME280;18457;52.432;16.914;2023-02-23T03:22:17;100591.16;;;1.92;79.61
31911;BME280;18457;52.432;16.914;2023-02-23T03:25:15;100586.40;;;1.94;79.54
31911;BME280;18457;52.432;16.914;2023-02-23T03:28:12;100583.52;;;1.92;80.03
31911;BME280;18457;52.432;16.914;2023-02-23T03:31:11;100587.23;;;1.91;79.90
31911;BME280;18457;52.432;16.914;2023-02-23T03:34:13;100580.61;;;1.89;79.98
31911;BME280;18457;52.432;16.914;2023-02-23T03:37:12;100579.36;;;1.88;79.87
31911;BME280;18457;52.432;16.914;2023-02-23T03:40:07;100577.98;;;1.91;79.79
31911;BME280;18457;52.432;16.914;2023-02-23T03:43:01;100578.76;;;1.83;80.21
31911;BME280;18457;52.432;16.914;2023-02-23T03:45:56;100573.84;;;1.87;79.85
31911;BME280;18457;52.432;16.914;2023-02-23T03:48:45;100571.29;;;1.84;80.21
31911;BME280;18457;52.432;16.914;2023-02-23T03:51:40;100568.98;;;1.84;80.24
31911;BME280;18457;52.432;16.914;2023-02-23T03:54:34;100567.46;;;1.77;80.48
31911;BME280;18457;52.432;16.914;2023-02-23T03:57:27;100562.32;;;1.78;80.81
31911;BME280;18457;52.432;16.914;2023-02-23T04:00:22;100562.84;;;1.78;80.76
31911;BME280;18457;52.432;16.914;2023-02-23T04:03:15;100562.75;;;1.84;80.38
31911;BME280;18457;52.432;16.914;2023-02-23T04:06:09;100564.69;;;1.84;80.41
31911;BME280;18457;52.432;16.914;2023-02-23T04:09:04;100564.42;;;1.77;81.05
31911;BME280;18457;52.432;16.914;2023-02-23T04:11:57;100563.61;;;1.82;80.61
31911;BME280;18457;52.432;16.914;2023-02-23T04:14:59;100562.35;;;1.82;80.34
31911;BME280;18457;52.432;16.914;2023-02-23T04:17:31;100556.79;;;1.77;80.64
31911;BME280;18457;52.432;16.914;2023-02-23T04:20:05;100556.23;;;1.76;80.71
31911;BME280;18457;52.432;16.914;2023-02-23T04:22:37;100557.20;;;1.82;80.54
31911;BME280;18457;52.432;16.914;2023-02-23T04:25:10;100560.39;;;1.81;80.73
31911;BME280;18457;52.432;16.914;2023-02-23T04:27:46;100556.48;;;1.81;80.87
31911;BME280;18457;52.432;16.914;2023-02-23T04:30:18;100555.11;;;1.72;81.16
31911;BME280;18457;52.432;16.914;2023-02-23T04:32:54;100551.42;;;1.75;80.88
31911;BME280;18457;52.432;16.914;2023-02-23T04:35:28;100546.65;;;1.80;80.88
31911;BME280;18457;52.432;16.914;2023-02-23T04:38:01;100544.73;;;1.82;80.93
31911;BME280;18457;52.432;16.914;2023-02-23T04:40:32;100541.45;;;1.76;81.41
31911;BME280;18457;52.432;16.914;2023-02-23T04:43:04;100539.73;;;1.81;81.03
31911;BME280;18457;52.432;16.914;2023-02-23T04:45:36;100532.95;;;1.79;81.24
31911;BME280;18457;52.432;16.914;2023-02-23T04:48:08;100532.26;;;1.82;81.11
31911;BME280;18457;52.432;16.914;2023-02-23T04:50:40;100528.29;;;1.77;81.15
31911;BME280;18457;52.432;16.914;2023-02-23T04:53:12;100521.34;;;1.77;81.35
31911;BME280;18457;52.432;16.914;2023-02-23T04:55:44;100526.01;;;1.67;81.89
31911;BME280;18457;52.432;16.914;2023-02-23T04:58:17;100527.14;;;1.71;81.80
31911;BME280;18457;52.432;16.914;2023-02-23T05:00:49;100520.18;;;1.71;82.03
31911;BME280;18457;52.432;16.914;2023-02-23T05:03:20;100522.71;;;1.72;81.72
31911;BME280;18457;52.432;16.914;2023-02-23T05:05:53;100521.41;;;1.69;81.80
31911;BME280;18457;52.432;16.914;2023-02-23T05:08:25;100520.59;;;1.73;81.47
31911;BME280;18457;52.432;16.914;2023-02-23T05:10:56;100518.50;;;1.77;81.50
31911;BME280;18457;52.432;16.914;2023-02-23T05:13:28;100514.73;;;1.76;81.67
31911;BME280;18457;52.432;16.914;2023-02-23T05:16:00;100512.55;;;1.71;82.07
31911;BME280;18457;52.432;16.914;2023-02-23T05:18:32;100511.52;;;1.74;81.91
31911;BME280;18457;52.432;16.914;2023-02-23T05:21:06;100506.58;;;1.79;81.48
31911;BME280;18457;52.432;16.914;2023-02-23T05:23:39;100509.11;;;1.68;81.98
31911;BME280;18457;52.432;16.914;2023-02-23T05:26:12;100513.98;;;1.71;81.85
31911;BME280;18457;52.432;16.914;2023-02-23T05:28:44;100513.91;;;1.67;82.12
31911;BME280;18457;52.432;16.914;2023-02-23T05:31:16;100516.94;;;1.67;82.11
31911;BME280;18457;52.432;16.914;2023-02-23T05:33:48;100510.01;;;1.69;82.20
31911;BME280;18457;52.432;16.914;2023-02-23T05:36:21;100505.70;;;1.67;82.00
31911;BME280;18457;52.432;16.914;2023-02-23T05:38:53;100503.02;;;1.65;82.36
31911;BME280;18457;52.432;16.914;2023-02-23T05:41:24;100501.05;;;1.64;82.43
31911;BME280;18457;52.432;16.914;2023-02-23T05:43:56;100502.39;;;1.71;82.23
31911;BME280;18457;52.432;16.914;2023-02-23T05:46:28;100497.21;;;1.70;82.11
31911;BME280;18457;52.432;16.914;2023-02-23T05:49:01;100500.21;;;1.69;82.17
31911;BME280;18457;52.432;16.914;2023-02-23T05:51:32;100498.81;;;1.70;82.15
31911;BME280;18457;52.432;16.914;2023-02-23T05:54:04;100502.52;;;1.69;82.23
31911;BME280;18457;52.432;16.914;2023-02-23T05:56:35;100501.34;;;1.60;82.69
31911;BME280;18457;52.432;16.914;2023-02-23T05:59:07;100503.05;;;1.55;82.96
31911;BME280;18457;52.432;16.914;2023-02-23T06:01:39;100497.37;;;1.55;82.91
31911;BME280;18457;52.432;16.914;2023-02-23T06:04:11;100494.36;;;1.57;82.92
31911;BME280;18457;52.432;16.914;2023-02-23T06:06:43;100490.61;;;1.56;83.05
31911;BME280;18457;52.432;16.914;2023-02-23T06:09:15;100487.36;;;1.51;83.55
31911;BME280;18457;52.432;16.914;2023-02-23T06:11:47;100491.99;;;1.53;83.62
31911;BME280;18457;52.432;16.914;2023-02-23T06:14:19;100486.88;;;1.57;83.19
31911;BME280;18457;52.432;16.914;2023-02-23T06:16:51;100485.34;;;1.61;83.12
31911;BME280;18457;52.432;16.914;2023-02-23T06:19:23;100479.11;;;1.61;83.07
31911;BME280;18457;52.432;16.914;2023-02-23T06:21:56;100480.12;;;1.56;83.46
31911;BME280;18457;52.432;16.914;2023-02-23T06:24:28;100477.11;;;1.58;83.47
31911;BME280;18457;52.432;16.914;2023-02-23T06:27:00;100474.44;;;1.58;83.71
31911;BME280;18457;52.432;16.914;2023-02-23T06:29:32;100472.49;;;1.59;83.35
31911;BME280;18457;52.432;16.914;2023-02-23T06:32:04;100473.20;;;1.59;83.54
31911;BME280;18457;52.432;16.914;2023-02-23T06:34:35;100471.42;;;1.58;83.53
31911;BME280;18457;52.432;16.914;2023-02-23T06:37:07;100474.81;;;1.60;83.49
31911;BME280;18457;52.432;16.914;2023-02-23T06:39:39;100475.38;;;1.62;83.83
31911;BME280;18457;52.432;16.914;2023-02-23T06:42:11;100480.81;;;1.68;83.40
31911;BME280;18457;52.432;16.914;2023-02-23T06:44:43;100483.17;;;1.72;83.42
31911;BME280;18457;52.432;16.914;2023-02-23T06:47:15;100492.92;;;1.69;83.56
31911;BME280;18457;52.432;16.914;2023-02-23T06:49:47;100495.83;;;1.72;83.31
31911;BME280;18457;52.432;16.914;2023-02-23T06:52:19;100495.16;;;1.77;83.12
31911;BME280;18457;52.432;16.914;2023-02-23T06:54:53;100498.27;;;1.70;83.65
31911;BME280;18457;52.432;16.914;2023-02-23T06:57:25;100494.06;;;1.74;83.93
31911;BME280;18457;52.432;16.914;2023-02-23T06:59:57;100494.16;;;1.83;83.08
31911;BME280;18457;52.432;16.914;2023-02-23T07:02:31;100493.77;;;1.80;83.29
31911;BME280;18457;52.432;16.914;2023-02-23T07:05:05;100493.42;;;1.79;83.70
31911;BME280;18457;52.432;16.914;2023-02-23T07:07:37;100491.92;;;1.74;83.92
31911;BME280;18457;52.432;16.914;2023-02-23T07:10:11;100486.69;;;1.83;83.86
31911;BME280;18457;52.432;16.914;2023-02-23T07:12:43;100490.88;;;1.91;83.46
31911;BME280;18457;52.432;16.914;2023-02-23T07:15:15;100487.73;;;1.97;83.36
31911;BME280;18457;52.432;16.914;2023-02-23T07:17:50;100485.69;;;2.03;83.02
31911;BME280;18457;52.432;16.914;2023-02-23T07:20:22;100481.48;;;2.09;82.67
31911;BME280;18457;52.432;16.914;2023-02-23T07:22:54;100481.66;;;2.09;82.95
31911;BME280;18457;52.432;16.914;2023-02-23T07:25:26;100483.73;;;2.03;83.58
31911;BME280;18457;52.432;16.914;2023-02-23T07:27:58;100479.98;;;2.02;83.47
31911;BME280;18457;52.432;16.914;2023-02-23T07:30:30;100474.58;;;2.14;82.84
31911;BME280;18457;52.432;16.914;2023-02-23T07:33:02;100476.13;;;2.25;82.39
31911;BME280;18457;52.432;16.914;2023-02-23T07:35:34;100472.79;;;2.29;82.40
31911;BME280;18457;52.432;16.914;2023-02-23T07:38:06;100472.28;;;2.32;82.24
31911;BME280;18457;52.432;16.914;2023-02-23T07:40:38;100468.22;;;2.36;81.93
31911;BME280;18457;52.432;16.914;2023-02-23T07:43:10;100469.43;;;2.34;82.30
31911;BME280;18457;52.432;16.914;2023-02-23T07:45:42;100466.48;;;2.39;82.09
31911;BME280;18457;52.432;16.914;2023-02-23T07:48:16;100467.77;;;2.45;82.01
31911;BME280;18457;52.432;16.914;2023-02-23T07:50:48;100468.19;;;2.50;81.73
31911;BME280;18457;52.432;16.914;2023-02-23T07:53:19;100470.89;;;2.53;81.46
31911;BME280;18457;52.432;16.914;2023-02-23T07:55:57;100464.99;;;2.51;81.73
31911;BME280;18457;52.432;16.914;2023-02-23T07:58:29;100467.88;;;2.56;81.79
31911;BME280;18457;52.432;16.914;2023-02-23T08:01:01;100464.14;;;2.57;81.88
31911;BME280;18457;52.432;16.914;2023-02-23T08:03:35;100462.92;;;2.60;82.20
31911;BME280;18457;52.432;16.914;2023-02-23T08:06:08;100456.73;;;2.68;81.67
31911;BME280;18457;52.432;16.914;2023-02-23T08:08:40;100456.59;;;2.71;81.30
31911;BME280;18457;52.432;16.914;2023-02-23T08:11:12;100453.59;;;2.75;81.32
31911;BME280;18457;52.432;16.914;2023-02-23T08:13:45;100447.57;;;2.79;81.15
31911;BME280;18457;52.432;16.914;2023-02-23T08:16:18;100441.13;;;2.78;81.01
31911;BME280;18457;52.432;16.914;2023-02-23T08:18:50;100440.27;;;2.83;80.70
31911;BME280;18457;52.432;16.914;2023-02-23T08:21:22;100437.98;;;2.84;80.79
31911;BME280;18457;52.432;16.914;2023-02-23T08:23:55;100436.04;;;2.88;80.76
31911;BME280;18457;52.432;16.914;2023-02-23T08:26:27;100436.98;;;2.97;80.45
31911;BME280;18457;52.432;16.914;2023-02-23T08:28:59;100435.77;;;2.99;80.48
31911;BME280;18457;52.432;16.914;2023-02-23T08:31:31;100436.53;;;3.08;80.32
31911;BME280;18457;52.432;16.914;2023-02-23T08:34:04;100437.09;;;3.13;80.21
31911;BME280;18457;52.432;16.914;2023-02-23T08:36:36;100440.34;;;3.16;80.25
31911;BME280;18457;52.432;16.914;2023-02-23T08:39:08;100440.54;;;3.20;79.93
31911;BME280;18457;52.432;16.914;2023-02-23T08:41:41;100438.52;;;3.15;80.53
31911;BME280;18457;52.432;16.914;2023-02-23T08:44:13;100434.83;;;3.22;80.23
31911;BME280;18457;52.432;16.914;2023-02-23T08:46:45;100432.20;;;3.28;79.95
31911;BME280;18457;52.432;16.914;2023-02-23T08:49:17;100431.86;;;3.31;80.24
31911;BME280;18457;52.432;16.914;2023-02-23T08:51:48;100428.13;;;3.36;79.90
31911;BME280;18457;52.432;16.914;2023-02-23T08:54:20;100425.14;;;3.45;79.36
31911;BME280;18457;52.432;16.914;2023-02-23T08:56:55;100420.19;;;3.52;78.96
31911;BME280;18457;52.432;16.914;2023-02-23T08:59:28;100419.86;;;3.61;78.91
31911;BME280;18457;52.432;16.914;2023-02-23T09:02:00;100411.48;;;3.69;78.54
31911;BME280;18457;52.432;16.914;2023-02-23T09:04:33;100410.78;;;3.70;78.41
31911;BME280;18457;52.432;16.914;2023-02-23T09:07:06;100402.23;;;3.79;78.50
31911;BME280;18457;52.432;16.914;2023-02-23T09:09:37;100404.05;;;3.87;78.53
31911;BME280;18457;52.432;16.914;2023-02-23T09:12:09;100408.73;;;3.96;78.41
31911;BME280;18457;52.432;16.914;2023-02-23T09:14:41;100403.89;;;3.97;78.52
31911;BME280;18457;52.432;16.914;2023-02-23T09:17:13;100406.23;;;4.03;78.14
31911;BME280;18457;52.432;16.914;2023-02-23T09:19:47;100406.25;;;4.13;77.92
31911;BME280;18457;52.432;16.914;2023-02-23T09:22:19;100407.69;;;4.19;77.66
31911;BME280;18457;52.432;16.914;2023-02-23T09:24:52;100399.14;;;4.28;77.63
31911;BME280;18457;52.432;16.914;2023-02-23T09:27:24;100403.61;;;4.35;77.51
31911;BME280;18457;52.432;16.914;2023-02-23T09:29:56;100404.14;;;4.45;76.90
31911;BME280;18457;52.432;16.914;2023-02-23T09:32:27;100405.40;;;4.51;76.14
31911;BME280;18457;52.432;16.914;2023-02-23T09:34:59;100406.83;;;4.56;76.15
31911;BME280;18457;52.432;16.914;2023-02-23T09:37:32;100402.00;;;4.62;76.11
31911;BME280;18457;52.432;16.914;2023-02-23T09:40:12;100396.45;;;4.71;75.96
31911;BME280;18457;52.432;16.914;2023-02-23T09:42:52;100397.16;;;4.78;75.50
31911;BME280;18457;52.432;16.914;2023-02-23T09:45:34;100399.66;;;4.89;75.14
31911;BME280;18457;52.432;16.914;2023-02-23T09:48:15;100392.84;;;5.03;75.51
31911;BME280;18457;52.432;16.914;2023-02-23T09:50:51;100391.74;;;5.11;75.17
31911;BME280;18457;52.432;16.914;2023-02-23T09:53:33;100389.38;;;5.23;74.83
31911;BME280;18457;52.432;16.914;2023-02-23T09:56:12;100390.59;;;5.38;74.20
31911;BME280;18457;52.432;16.914;2023-02-23T09:58:45;100386.64;;;5.42;73.64
31911;BME280;18457;52.432;16.914;2023-02-23T10:01:39;100381.05;;;5.53;72.88
31911;BME280;18457;52.432;16.914;2023-02-23T10:04:21;100384.58;;;5.63;72.36
31911;BME280;18457;52.432;16.914;2023-02-23T10:06:59;100387.02;;;5.73;72.14
31911;BME280;18457;52.432;16.914;2023-02-23T10:12:31;100383.20;;;5.94;71.83
31911;BME280;18457;52.432;16.914;2023-02-23T10:15:15;100380.06;;;6.07;71.43
31911;BME280;18457;52.432;16.914;2023-02-23T10:17:57;100375.47;;;6.25;70.80
31911;BME280;18457;52.432;16.914;2023-02-23T10:20:39;100370.20;;;6.35;70.71
31911;BME280;18457;52.432;16.914;2023-02-23T10:23:17;100369.73;;;6.48;70.74
31911;BME280;18457;52.432;16.914;2023-02-23T10:25:56;100368.54;;;6.62;70.24
31911;BME280;18457;52.432;16.914;2023-02-23T10:28:34;100370.59;;;6.72;69.98
31911;BME280;18457;52.432;16.914;2023-02-23T10:31:22;100367.96;;;6.86;69.30
31911;BME280;18457;52.432;16.914;2023-02-23T10:33:56;100362.38;;;6.88;69.16
31911;BME280;18457;52.432;16.914;2023-02-23T10:36:35;100359.88;;;7.02;68.66
31911;BME280;18457;52.432;16.914;2023-02-23T10:39:10;100358.46;;;7.02;67.83
31911;BME280;18457;52.432;16.914;2023-02-23T10:41:44;100353.41;;;7.02;68.05
31911;BME280;18457;52.432;16.914;2023-02-23T10:44:19;100357.11;;;7.10;67.69
31911;BME280;18457;52.432;16.914;2023-02-23T10:46:55;100351.04;;;7.06;67.55
31911;BME280;18457;52.432;16.914;2023-02-23T10:49:34;100349.23;;;7.08;67.96
31911;BME280;18457;52.432;16.914;2023-02-23T10:52:12;100349.02;;;7.10;68.62
31911;BME280;18457;52.432;16.914;2023-02-23T10:54:46;100338.23;;;7.12;68.27
31911;BME280;18457;52.432;16.914;2023-02-23T10:57:24;100337.88;;;7.26;68.39
31911;BME280;18457;52.432;16.914;2023-02-23T11:00:10;100334.04;;;7.32;68.32
31911;BME280;18457;52.432;16.914;2023-02-23T11:03:03;100329.02;;;7.44;67.21
31911;BME280;18457;52.432;16.914;2023-02-23T11:05:51;100332.65;;;7.56;67.67
31911;BME280;18457;52.432;16.914;2023-02-23T11:08:31;100332.03;;;7.62;67.09
31911;BME280;18457;52.432;16.914;2023-02-23T11:11:08;100320.31;;;7.77;67.54
31911;BME280;18457;52.432;16.914;2023-02-23T11:13:49;100320.71;;;7.87;66.75
31911;BME280;18457;52.432;16.914;2023-02-23T11:16:22;100315.05;;;7.81;66.65
31911;BME280;18457;52.432;16.914;2023-02-23T11:18:57;100312.27;;;7.86;66.36
31911;BME280;18457;52.432;16.914;2023-02-23T11:21:32;100307.47;;;7.95;66.76
31911;BME280;18457;52.432;16.914;2023-02-23T11:24:20;100302.59;;;8.08;67.16
31911;BME280;18457;52.432;16.914;2023-02-23T11:26:54;100292.82;;;8.11;66.26
31911;BME280;18457;52.432;16.914;2023-02-23T11:29:33;100290.30;;;8.11;66.11
31911;BME280;18457;52.432;16.914;2023-02-23T11:32:11;100282.67;;;8.16;66.34
31911;BME280;18457;52.432;16.914;2023-02-23T11:34:44;100274.03;;;8.16;66.40
31911;BME280;18457;52.432;16.914;2023-02-23T11:37:22;100268.23;;;8.19;66.77
31911;BME280;18457;52.432;16.914;2023-02-23T11:39:56;100269.27;;;8.23;66.04
31911;BME280;18457;52.432;16.914;2023-02-23T11:42:29;100261.16;;;8.23;65.66
31911;BME280;18457;52.432;16.914;2023-02-23T11:45:17;100257.11;;;8.28;66.13
31911;BME280;18457;52.432;16.914;2023-02-23T11:47:51;100258.56;;;8.28;66.14
31911;BME280;18457;52.432;16.914;2023-02-23T11:50:29;100259.88;;;8.24;66.51
31911;BME280;18457;52.432;16.914;2023-02-23T11:53:04;100261.38;;;8.20;66.38
31911;BME280;18457;52.432;16.914;2023-02-23T11:55:38;100261.36;;;8.20;66.80
31911;BME280;18457;52.432;16.914;2023-02-23T11:58:17;100259.44;;;8.30;67.13
31911;BME280;18457;52.432;16.914;2023-02-23T12:00:58;100255.39;;;8.35;66.61
31911;BME280;18457;52.432;16.914;2023-02-23T12:03:33;100247.98;;;8.37;66.88
31911;BME280;18457;52.432;16.914;2023-02-23T12:06:07;100245.14;;;8.44;66.94
31911;BME280;18457;52.432;16.914;2023-02-23T12:08:44;100244.90;;;8.37;67.05
31911;BME280;18457;52.432;16.914;2023-02-23T12:11:20;100241.08;;;8.40;67.24
31911;BME280;18457;52.432;16.914;2023-02-23T12:13:58;100235.73;;;8.48;67.75
31911;BME280;18457;52.432;16.914;2023-02-23T12:16:36;100239.36;;;8.54;67.53
31911;BME280;18457;52.432;16.914;2023-02-23T12:19:21;100241.34;;;8.55;67.29
31911;BME280;18457;52.432;16.914;2023-02-23T12:22:02;100236.33;;;8.53;67.16
31911;BME280;18457;52.432;16.914;2023-02-23T12:24:42;100234.31;;;8.65;67.94
31911;BME280;18457;52.432;16.914;2023-02-23T12:27:17;100231.05;;;8.67;66.95
31911;BME280;18457;52.432;16.914;2023-02-23T12:30:11;100231.56;;;8.76;67.18
31911;BME280;18457;52.432;16.914;2023-02-23T12:32:50;100231.36;;;8.87;66.91
31911;BME280;18457;52.432;16.914;2023-02-23T12:35:30;100227.49;;;8.91;67.41
31911;BME280;18457;52.432;16.914;2023-02-23T12:38:07;100222.91;;;8.95;67.36
31911;BME280;18457;52.432;16.914;2023-02-23T12:40:43;100216.30;;;8.92;67.58
31911;BME280;18457;52.432;16.914;2023-02-23T12:43:18;100213.08;;;9.00;67.25
31911;BME280;18457;52.432;16.914;2023-02-23T12:45:56;100207.46;;;9.10;67.56
31911;BME280;18457;52.432;16.914;2023-02-23T12:48:34;100207.90;;;9.06;67.29
31911;BME280;18457;52.432;16.914;2023-02-23T12:51:17;100202.27;;;9.09;67.19
31911;BME280;18457;52.432;16.914;2023-02-23T12:53:50;100200.93;;;9.12;67.00
31911;BME280;18457;52.432;16.914;2023-02-23T12:56:45;100196.44;;;9.11;66.85
31911;BME280;18457;52.432;16.914;2023-02-23T12:59:40;100192.70;;;9.18;67.46
31911;BME280;18457;52.432;16.914;2023-02-23T13:02:20;100190.14;;;9.19;66.97
31911;BME280;18457;52.432;16.914;2023-02-23T13:05:16;100184.73;;;9.19;66.36
31911;BME280;18457;52.432;16.914;2023-02-23T13:08:01;100178.14;;;9.24;66.85
31911;BME280;18457;52.432;16.914;2023-02-23T13:10:49;100170.27;;;9.20;67.34
31911;BME280;18457;52.432;16.914;2023-02-23T13:13:29;100166.80;;;9.15;67.36
31911;BME280;18457;52.432;16.914;2023-02-23T13:16:13;100160.86;;;9.14;67.37
31911;BME280;18457;52.432;16.914;2023-02-23T13:18:50;100161.70;;;9.10;67.67
31911;BME280;18457;52.432;16.914;2023-02-23T13:21:28;100160.23;;;9.19;67.57
31911;BME280;18457;52.432;16.914;2023-02-23T13:24:03;100158.70;;;9.22;67.90
31911;BME280;18457;52.432;16.914;2023-02-23T13:26:45;100158.23;;;9.28;68.20
31911;BME280;18457;52.432;16.914;2023-02-23T13:29:27;100161.27;;;9.35;68.23
31911;BME280;18457;52.432;16.914;2023-02-23T13:32:08;100155.14;;;9.36;67.93
31911;BME280;18457;52.432;16.914;2023-02-23T13:34:43;100148.59;;;9.39;68.04
31911;BME280;18457;52.432;16.914;2023-02-23T13:37:19;100146.27;;;9.38;67.94
31911;BME280;18457;52.432;16.914;2023-02-23T13:39:59;100144.60;;;9.47;68.72
31911;BME280;18457;52.432;16.914;2023-02-23T13:42:38;100141.58;;;9.45;68.67
31911;BME280;18457;52.432;16.914;2023-02-23T13:45:29;100138.08;;;9.48;68.53
31911;BME280;18457;52.432;16.914;2023-02-23T13:48:13;100134.31;;;9.47;69.08
31911;BME280;18457;52.432;16.914;2023-02-23T13:50:53;100127.61;;;9.49;68.97
31911;BME280;18457;52.432;16.914;2023-02-23T13:53:39;100130.58;;;9.53;68.68